Terminal Aerodrome Forecast
Issued by NWS

Home | Current Version | Previous Version | Text Only | Print | Product List | Glossary On
Versions: 1 2 3 4 5 6 7 8 9 10 11 12 13 14 15 16 17 18 19 20 21 22 23 24 25 26 27 28 29
000
FTUS43 KDLH 292100 AAD
TAFHYR
TAF AMD
KHYR 292141Z 2922/3018 19007KT P6SM VCSH FEW007 BKN110
      TEMPO 2922/2924 SCT007 BKN020
     FM300100 VRB03KT 4SM -RA BR VCTS OVC015CB
     FM300600 00000KT 1SM BR OVC005
     FM301500 35004KT 4SM BR OVC007=

USA.gov is the U.S. government's official web portal to all federal, state and local government web resources and services.